IGO1153 VIDP-VNKT
Flight info
| Callsign | IGO1153 |
|---|---|
| Flight time | 1h 12m |
| Altitude | 33000 |
| Route | ALI G452 LKN G598 SMR SMR |
| Aircraft | A320/M-SDE3FGHIRWY/LB1 |
Departure
| Time | 2026-04-28 07:03 |
|---|---|
| Airport | Indira Gandhi International Airport (VIDP) |
Arrival
| Time | 2026-04-28 08:15 |
|---|---|
| Airport | Tribhuvan International Airport (VNKT) |
| Time | Latitude | Longitude | Altitude | Speed | Heading |
|---|---|---|---|---|---|
| 2026-04-28 06:46 | 28.56238 | 77.08214 | 731 ft | 0 kts | 238° |
| 2026-04-28 06:54 | 28.56240 | 77.08218 | 731 ft | 2 kts | 238° |
| 2026-04-28 06:54 | 28.56249 | 77.08234 | 731 ft | 2 kts | 239° |
| 2026-04-28 06:55 | 28.56257 | 77.08253 | 730 ft | 3 kts | 268° |
| 2026-04-28 06:55 | 28.56254 | 77.08273 | 730 ft | 3 kts | 305° |
| 2026-04-28 06:55 | 28.56240 | 77.08289 | 730 ft | 3 kts | 327° |
| 2026-04-28 06:55 | 28.56232 | 77.08295 | 729 ft | 1 kts | 329° |
| 2026-04-28 06:56 | 28.56231 | 77.08296 | 729 ft | 0 kts | 329° |
| 2026-04-28 06:57 | 28.56232 | 77.08295 | 729 ft | 1 kts | 329° |
| 2026-04-28 06:57 | 28.56246 | 77.08286 | 730 ft | 4 kts | 329° |
| 2026-04-28 06:58 | 28.56278 | 77.08264 | 730 ft | 7 kts | 329° |
| 2026-04-28 06:58 | 28.56315 | 77.08221 | 730 ft | 9 kts | 296° |
| 2026-04-28 06:58 | 28.56331 | 77.08149 | 730 ft | 10 kts | 285° |
| 2026-04-28 06:58 | 28.56351 | 77.08065 | 730 ft | 12 kts | 285° |
| 2026-04-28 06:59 | 28.56401 | 77.08001 | 730 ft | 12 kts | 351° |
| 2026-04-28 06:59 | 28.56472 | 77.08050 | 730 ft | 14 kts | 60° |
| 2026-04-28 06:59 | 28.56523 | 77.08151 | 731 ft | 16 kts | 63° |
| 2026-04-28 06:59 | 28.56577 | 77.08267 | 730 ft | 18 kts | 60° |
| 2026-04-28 07:00 | 28.56640 | 77.08396 | 728 ft | 20 kts | 62° |
| 2026-04-28 07:00 | 28.56712 | 77.08535 | 728 ft | 20 kts | 45° |
| 2026-04-28 07:00 | 28.56827 | 77.08626 | 730 ft | 20 kts | 44° |
| 2026-04-28 07:00 | 28.56933 | 77.08732 | 729 ft | 21 kts | 41° |
| 2026-04-28 07:01 | 28.57039 | 77.08846 | 730 ft | 21 kts | 62° |
| 2026-04-28 07:01 | 28.57051 | 77.08958 | 733 ft | 1 kts | 90° |
| 2026-04-28 07:01 | 28.57051 | 77.08962 | 733 ft | 4 kts | 90° |
| 2026-04-28 07:02 | 28.57048 | 77.09201 | 737 ft | 63 kts | 91° |
| 2026-04-28 07:02 | 28.57032 | 77.09923 | 753 ft | 117 kts | 91° |
| 2026-04-28 07:02 | 28.57014 | 77.11020 | 799 ft | 156 kts | 89° |
| 2026-04-28 07:02 | 28.56968 | 77.12240 | 1307 ft | 157 kts | 89° |
| 2026-04-28 07:03 | 28.56961 | 77.13522 | 1726 ft | 169 kts | 87° |
| 2026-04-28 07:03 | 28.57018 | 77.14927 | 2139 ft | 186 kts | 81° |
| 2026-04-28 07:03 | 28.57187 | 77.16442 | 2493 ft | 201 kts | 74° |
| 2026-04-28 07:03 | 28.57522 | 77.18057 | 2766 ft | 220 kts | 71° |
| 2026-04-28 07:04 | 28.57681 | 77.19879 | 2965 ft | 246 kts | 91° |
| 2026-04-28 07:04 | 28.57461 | 77.21910 | 3213 ft | 270 kts | 96° |
| 2026-04-28 07:04 | 28.57152 | 77.24059 | 3775 ft | 279 kts | 96° |
| 2026-04-28 07:04 | 28.56880 | 77.26267 | 4474 ft | 284 kts | 94° |
| 2026-04-28 07:05 | 28.56678 | 77.28508 | 5215 ft | 286 kts | 92° |
| 2026-04-28 07:05 | 28.56539 | 77.30771 | 5989 ft | 288 kts | 90° |
| 2026-04-28 07:05 | 28.56445 | 77.33061 | 6656 ft | 292 kts | 90° |
| 2026-04-28 07:05 | 28.56379 | 77.35390 | 7302 ft | 297 kts | 90° |
| 2026-04-28 07:06 | 28.56166 | 77.37735 | 7962 ft | 302 kts | 105° |
| 2026-04-28 07:06 | 28.55279 | 77.39896 | 8622 ft | 304 kts | 128° |
| 2026-04-28 07:06 | 28.53736 | 77.41522 | 9316 ft | 303 kts | 152° |
| 2026-04-28 07:06 | 28.51802 | 77.42432 | 9669 ft | 300 kts | 166° |
| 2026-04-28 07:07 | 28.49799 | 77.43088 | 9746 ft | 299 kts | 167° |
| 2026-04-28 07:07 | 28.47800 | 77.43720 | 9757 ft | 298 kts | 167° |
| 2026-04-28 07:07 | 28.45802 | 77.44348 | 9758 ft | 298 kts | 167° |
| 2026-04-28 07:07 | 28.43806 | 77.44981 | 9753 ft | 298 kts | 167° |
| 2026-04-28 07:08 | 28.41811 | 77.45620 | 9752 ft | 298 kts | 167° |
| 2026-04-28 07:08 | 28.39818 | 77.46264 | 9753 ft | 298 kts | 167° |
| 2026-04-28 07:08 | 28.37821 | 77.46910 | 9794 ft | 300 kts | 167° |
| 2026-04-28 07:08 | 28.35769 | 77.47570 | 10119 ft | 316 kts | 167° |
| 2026-04-28 07:09 | 28.33578 | 77.48269 | 10266 ft | 337 kts | 167° |
| 2026-04-28 07:09 | 28.31298 | 77.49057 | 10679 ft | 348 kts | 161° |
| 2026-04-28 07:09 | 28.29145 | 77.50379 | 11245 ft | 357 kts | 147° |
| 2026-04-28 07:09 | 28.27299 | 77.52306 | 11823 ft | 366 kts | 132° |
| 2026-04-28 07:10 | 28.25736 | 77.54611 | 12418 ft | 371 kts | 130° |
| 2026-04-28 07:10 | 28.24165 | 77.56955 | 13004 ft | 375 kts | 130° |
| 2026-04-28 07:10 | 28.22578 | 77.59322 | 13574 ft | 379 kts | 131° |
| 2026-04-28 07:10 | 28.20970 | 77.61714 | 14110 ft | 383 kts | 130° |
| 2026-04-28 07:11 | 28.19351 | 77.64121 | 14656 ft | 386 kts | 130° |
| 2026-04-28 07:11 | 28.17718 | 77.66547 | 15186 ft | 389 kts | 130° |
| 2026-04-28 07:11 | 28.16066 | 77.68996 | 15719 ft | 392 kts | 130° |
| 2026-04-28 07:11 | 28.14427 | 77.71426 | 16247 ft | 395 kts | 130° |
| 2026-04-28 07:12 | 28.12748 | 77.73911 | 16783 ft | 399 kts | 130° |
| 2026-04-28 07:12 | 28.11056 | 77.76415 | 17313 ft | 402 kts | 130° |
| 2026-04-28 07:12 | 28.09350 | 77.78934 | 17872 ft | 404 kts | 130° |
| 2026-04-28 07:12 | 28.07631 | 77.81471 | 18353 ft | 408 kts | 130° |
| 2026-04-28 07:13 | 28.05898 | 77.84026 | 18834 ft | 410 kts | 130° |
| 2026-04-28 07:13 | 28.04155 | 77.86595 | 19343 ft | 413 kts | 130° |
| 2026-04-28 07:13 | 28.02402 | 77.89182 | 19847 ft | 415 kts | 130° |
| 2026-04-28 07:13 | 28.00640 | 77.91783 | 20370 ft | 418 kts | 130° |
| 2026-04-28 07:14 | 27.98866 | 77.94399 | 20903 ft | 420 kts | 130° |
| 2026-04-28 07:14 | 27.97084 | 77.97028 | 21416 ft | 423 kts | 129° |
| 2026-04-28 07:14 | 27.95283 | 77.99681 | 21885 ft | 426 kts | 129° |
| 2026-04-28 07:14 | 27.93475 | 78.02344 | 22376 ft | 428 kts | 129° |
| 2026-04-28 07:15 | 27.91655 | 78.05022 | 22863 ft | 431 kts | 129° |
| 2026-04-28 07:15 | 27.89824 | 78.07716 | 23326 ft | 433 kts | 129° |
| 2026-04-28 07:15 | 27.87983 | 78.10422 | 23715 ft | 435 kts | 129° |
| 2026-04-28 07:15 | 27.86132 | 78.13141 | 24112 ft | 437 kts | 129° |
| 2026-04-28 07:16 | 27.84278 | 78.15872 | 24503 ft | 439 kts | 127° |
| 2026-04-28 07:16 | 27.82673 | 78.18826 | 24895 ft | 443 kts | 117° |
| 2026-04-28 07:16 | 27.81482 | 78.22047 | 25275 ft | 446 kts | 111° |
| 2026-04-28 07:16 | 27.80375 | 78.25331 | 25650 ft | 448 kts | 112° |
| 2026-04-28 07:17 | 27.79258 | 78.28623 | 26018 ft | 450 kts | 112° |
| 2026-04-28 07:17 | 27.78129 | 78.31924 | 26385 ft | 452 kts | 112° |
| 2026-04-28 07:17 | 27.76994 | 78.35240 | 26740 ft | 454 kts | 112° |
| 2026-04-28 07:17 | 27.75855 | 78.38572 | 27096 ft | 456 kts | 112° |
| 2026-04-28 07:18 | 27.74712 | 78.41914 | 27451 ft | 458 kts | 112° |
| 2026-04-28 07:18 | 27.73562 | 78.45272 | 27810 ft | 460 kts | 112° |
| 2026-04-28 07:18 | 27.72405 | 78.48643 | 28167 ft | 461 kts | 112° |
| 2026-04-28 07:18 | 27.71241 | 78.52025 | 28519 ft | 463 kts | 112° |
| 2026-04-28 07:19 | 27.70071 | 78.55423 | 28866 ft | 465 kts | 112° |
| 2026-04-28 07:19 | 27.68897 | 78.58834 | 29207 ft | 467 kts | 112° |
| 2026-04-28 07:19 | 27.67716 | 78.62261 | 29554 ft | 469 kts | 112° |
| 2026-04-28 07:19 | 27.66532 | 78.65697 | 29871 ft | 471 kts | 112° |
| 2026-04-28 07:20 | 27.65341 | 78.69158 | 30141 ft | 473 kts | 112° |
| 2026-04-28 07:20 | 27.64150 | 78.72614 | 30508 ft | 473 kts | 112° |
| 2026-04-28 07:20 | 27.62958 | 78.76066 | 30913 ft | 472 kts | 112° |
| 2026-04-28 07:20 | 27.61766 | 78.79512 | 31296 ft | 471 kts | 113° |
| 2026-04-28 07:21 | 27.60575 | 78.82951 | 31675 ft | 471 kts | 113° |
| 2026-04-28 07:21 | 27.59383 | 78.86392 | 32048 ft | 471 kts | 113° |
| 2026-04-28 07:21 | 27.58196 | 78.89826 | 32430 ft | 470 kts | 113° |
| 2026-04-28 07:22 | 27.55833 | 78.96634 | 32723 ft | 467 kts | 113° |
| 2026-04-28 07:22 | 27.54651 | 79.00037 | 32715 ft | 465 kts | 113° |
| 2026-04-28 07:22 | 27.52298 | 79.06817 | 32716 ft | 464 kts | 113° |
| 2026-04-28 07:23 | 27.49939 | 79.13586 | 32724 ft | 464 kts | 113° |
| 2026-04-28 07:23 | 27.47570 | 79.20345 | 32716 ft | 464 kts | 113° |
| 2026-04-28 07:24 | 27.45198 | 79.27100 | 32725 ft | 464 kts | 113° |
| 2026-04-28 07:24 | 27.42825 | 79.33862 | 32727 ft | 464 kts | 113° |
| 2026-04-28 07:25 | 27.40460 | 79.40621 | 32728 ft | 464 kts | 113° |
| 2026-04-28 07:25 | 27.38085 | 79.47381 | 32727 ft | 464 kts | 113° |
| 2026-04-28 07:26 | 27.35616 | 79.54093 | 32722 ft | 464 kts | 116° |
| 2026-04-28 07:26 | 27.32795 | 79.60610 | 32726 ft | 463 kts | 119° |
| 2026-04-28 07:27 | 27.29863 | 79.67057 | 32729 ft | 463 kts | 118° |
| 2026-04-28 07:27 | 27.26987 | 79.73533 | 32730 ft | 463 kts | 118° |
| 2026-04-28 07:28 | 27.24168 | 79.80044 | 32734 ft | 463 kts | 117° |
| 2026-04-28 07:28 | 27.21350 | 79.86554 | 32731 ft | 463 kts | 118° |
| 2026-04-28 07:29 | 27.18512 | 79.93056 | 32728 ft | 463 kts | 118° |
| 2026-04-28 07:29 | 27.16147 | 79.98450 | 32727 ft | 463 kts | 118° |
| 2026-04-28 07:30 | 27.13302 | 80.04941 | 32726 ft | 463 kts | 118° |
| 2026-04-28 07:30 | 27.10449 | 80.11425 | 32716 ft | 463 kts | 118° |
| 2026-04-28 07:31 | 27.07599 | 80.17912 | 32717 ft | 463 kts | 118° |
| 2026-04-28 07:31 | 27.04747 | 80.24402 | 32715 ft | 464 kts | 118° |
| 2026-04-28 07:32 | 27.01885 | 80.30894 | 32717 ft | 464 kts | 118° |
| 2026-04-28 07:32 | 26.99019 | 80.37385 | 32717 ft | 464 kts | 118° |
| 2026-04-28 07:33 | 26.96145 | 80.43869 | 32719 ft | 464 kts | 118° |
| 2026-04-28 07:33 | 26.93265 | 80.50348 | 32720 ft | 465 kts | 118° |
| 2026-04-28 07:34 | 26.90392 | 80.56831 | 32721 ft | 465 kts | 118° |
| 2026-04-28 07:34 | 26.87516 | 80.63316 | 32713 ft | 465 kts | 118° |
| 2026-04-28 07:35 | 26.84633 | 80.69793 | 32701 ft | 465 kts | 118° |
| 2026-04-28 07:35 | 26.81746 | 80.76268 | 32701 ft | 465 kts | 118° |
| 2026-04-28 07:36 | 26.78852 | 80.82738 | 32702 ft | 465 kts | 118° |
| 2026-04-28 07:36 | 26.76739 | 80.89525 | 32703 ft | 469 kts | 100° |
| 2026-04-28 07:37 | 26.76673 | 80.96801 | 32699 ft | 470 kts | 83° |
| 2026-04-28 07:37 | 26.77494 | 81.04066 | 32697 ft | 471 kts | 83° |
| 2026-04-28 07:38 | 26.78297 | 81.11343 | 32695 ft | 471 kts | 83° |
| 2026-04-28 07:38 | 26.79086 | 81.18623 | 32700 ft | 471 kts | 83° |
| 2026-04-28 07:39 | 26.79880 | 81.25909 | 32706 ft | 471 kts | 83° |
| 2026-04-28 07:39 | 26.80678 | 81.33191 | 32707 ft | 471 kts | 83° |
| 2026-04-28 07:40 | 26.81467 | 81.40473 | 32706 ft | 471 kts | 83° |
| 2026-04-28 07:40 | 26.82249 | 81.47761 | 32709 ft | 471 kts | 83° |
| 2026-04-28 07:41 | 26.83033 | 81.55046 | 32712 ft | 471 kts | 83° |
| 2026-04-28 07:41 | 26.83805 | 81.62336 | 32713 ft | 471 kts | 83° |
| 2026-04-28 07:42 | 26.84574 | 81.69622 | 32706 ft | 471 kts | 83° |
| 2026-04-28 07:42 | 26.85348 | 81.76910 | 32707 ft | 471 kts | 83° |
| 2026-04-28 07:43 | 26.86111 | 81.84147 | 32706 ft | 471 kts | 83° |
| 2026-04-28 07:43 | 26.86878 | 81.91438 | 32705 ft | 471 kts | 83° |
| 2026-04-28 07:44 | 26.87635 | 81.98727 | 32704 ft | 471 kts | 83° |
| 2026-04-28 07:44 | 26.88386 | 82.06019 | 32703 ft | 471 kts | 83° |
| 2026-04-28 07:45 | 26.89131 | 82.13309 | 32704 ft | 471 kts | 83° |
| 2026-04-28 07:45 | 26.89874 | 82.20599 | 32704 ft | 471 kts | 83° |
| 2026-04-28 07:46 | 26.90624 | 82.27897 | 32701 ft | 471 kts | 83° |
| 2026-04-28 07:46 | 26.91370 | 82.35187 | 32701 ft | 471 kts | 83° |
| 2026-04-28 07:47 | 26.92108 | 82.42474 | 32699 ft | 471 kts | 83° |
| 2026-04-28 07:47 | 26.92837 | 82.49766 | 32699 ft | 471 kts | 84° |
| 2026-04-28 07:48 | 26.93559 | 82.57065 | 32707 ft | 471 kts | 84° |
| 2026-04-28 07:48 | 26.94285 | 82.64358 | 32705 ft | 471 kts | 83° |
| 2026-04-28 07:49 | 26.95008 | 82.71650 | 32702 ft | 471 kts | 84° |
| 2026-04-28 07:49 | 26.95724 | 82.78948 | 32702 ft | 471 kts | 84° |
| 2026-04-28 07:50 | 26.96433 | 82.86244 | 32708 ft | 471 kts | 84° |
| 2026-04-28 07:50 | 26.97143 | 82.93539 | 32707 ft | 471 kts | 84° |
| 2026-04-28 07:51 | 26.97851 | 83.00837 | 32709 ft | 471 kts | 84° |
| 2026-04-28 07:51 | 26.98584 | 83.08127 | 32710 ft | 471 kts | 83° |
| 2026-04-28 07:52 | 26.99349 | 83.15413 | 32707 ft | 471 kts | 83° |
| 2026-04-28 07:52 | 27.00101 | 83.22702 | 32710 ft | 471 kts | 83° |
| 2026-04-28 07:53 | 27.00830 | 83.29943 | 32708 ft | 470 kts | 83° |
| 2026-04-28 07:53 | 27.01565 | 83.37232 | 32712 ft | 470 kts | 83° |
| 2026-04-28 07:54 | 27.02290 | 83.44520 | 32717 ft | 470 kts | 83° |
| 2026-04-28 07:54 | 27.03018 | 83.51803 | 32715 ft | 470 kts | 83° |
| 2026-04-28 07:55 | 27.03743 | 83.59082 | 32714 ft | 469 kts | 83° |
| 2026-04-28 07:55 | 27.04461 | 83.66355 | 32710 ft | 469 kts | 83° |
| 2026-04-28 07:56 | 27.05173 | 83.73623 | 32702 ft | 469 kts | 83° |
| 2026-04-28 07:56 | 27.05524 | 83.77247 | 32546 ft | 464 kts | 83° |
| 2026-04-28 07:56 | 27.05871 | 83.80836 | 32033 ft | 462 kts | 83° |
| 2026-04-28 07:57 | 27.06218 | 83.84412 | 31509 ft | 460 kts | 83° |
| 2026-04-28 07:57 | 27.06565 | 83.87976 | 30991 ft | 458 kts | 83° |
| 2026-04-28 07:57 | 27.06908 | 83.91522 | 30481 ft | 456 kts | 83° |
| 2026-04-28 07:57 | 27.07248 | 83.95053 | 29973 ft | 454 kts | 83° |
| 2026-04-28 07:58 | 27.07585 | 83.98567 | 29414 ft | 452 kts | 83° |
| 2026-04-28 07:58 | 27.07920 | 84.02060 | 28932 ft | 448 kts | 83° |
| 2026-04-28 07:58 | 27.08251 | 84.05523 | 28452 ft | 444 kts | 83° |
| 2026-04-28 07:58 | 27.08579 | 84.08950 | 27993 ft | 440 kts | 83° |
| 2026-04-28 07:59 | 27.08902 | 84.12357 | 27528 ft | 437 kts | 83° |
| 2026-04-28 07:59 | 27.09222 | 84.15730 | 27085 ft | 434 kts | 83° |
| 2026-04-28 07:59 | 27.09539 | 84.19088 | 26639 ft | 431 kts | 83° |
| 2026-04-28 07:59 | 27.09855 | 84.22423 | 26216 ft | 429 kts | 83° |
| 2026-04-28 08:00 | 27.10169 | 84.25744 | 25783 ft | 427 kts | 83° |
| 2026-04-28 08:00 | 27.10480 | 84.29054 | 25335 ft | 426 kts | 83° |
| 2026-04-28 08:00 | 27.10792 | 84.32358 | 24880 ft | 425 kts | 83° |
| 2026-04-28 08:00 | 27.11102 | 84.35655 | 24416 ft | 425 kts | 83° |
| 2026-04-28 08:01 | 27.11410 | 84.38952 | 23954 ft | 425 kts | 83° |
| 2026-04-28 08:01 | 27.11716 | 84.42245 | 23584 ft | 422 kts | 83° |
| 2026-04-28 08:01 | 27.12016 | 84.45485 | 23032 ft | 424 kts | 83° |
| 2026-04-28 08:01 | 27.12320 | 84.48792 | 22730 ft | 417 kts | 83° |
| 2026-04-28 08:02 | 27.12612 | 84.51980 | 22270 ft | 416 kts | 83° |
| 2026-04-28 08:02 | 27.12906 | 84.55202 | 21816 ft | 414 kts | 83° |
| 2026-04-28 08:02 | 27.13199 | 84.58407 | 21356 ft | 412 kts | 83° |
| 2026-04-28 08:02 | 27.13492 | 84.61593 | 20893 ft | 410 kts | 83° |
| 2026-04-28 08:03 | 27.13784 | 84.64763 | 20426 ft | 408 kts | 83° |
| 2026-04-28 08:03 | 27.14072 | 84.67923 | 19974 ft | 406 kts | 83° |
| 2026-04-28 08:03 | 27.14336 | 84.71068 | 19516 ft | 404 kts | 83° |
| 2026-04-28 08:03 | 27.14581 | 84.74199 | 19052 ft | 401 kts | 83° |
| 2026-04-28 08:04 | 27.14813 | 84.77293 | 18278 ft | 396 kts | 83° |
| 2026-04-28 08:04 | 27.15040 | 84.80360 | 17524 ft | 390 kts | 83° |
| 2026-04-28 08:04 | 27.15261 | 84.83339 | 17093 ft | 376 kts | 83° |
| 2026-04-28 08:04 | 27.15477 | 84.86214 | 16646 ft | 363 kts | 82° |
| 2026-04-28 08:05 | 27.15693 | 84.89028 | 16212 ft | 362 kts | 82° |
| 2026-04-28 08:05 | 27.15914 | 84.91845 | 15773 ft | 363 kts | 82° |
| 2026-04-28 08:05 | 27.16137 | 84.94669 | 15326 ft | 363 kts | 82° |
| 2026-04-28 08:05 | 27.16620 | 84.97429 | 14908 ft | 359 kts | 67° |
| 2026-04-28 08:06 | 27.17673 | 84.99926 | 14591 ft | 348 kts | 51° |
| 2026-04-28 08:06 | 27.19112 | 85.02077 | 14352 ft | 344 kts | 46° |
| 2026-04-28 08:06 | 27.20587 | 85.04186 | 14123 ft | 343 kts | 46° |
| 2026-04-28 08:06 | 27.22054 | 85.06298 | 13878 ft | 342 kts | 47° |
| 2026-04-28 08:07 | 27.23508 | 85.08399 | 13639 ft | 339 kts | 47° |
| 2026-04-28 08:07 | 27.24953 | 85.10493 | 13451 ft | 339 kts | 47° |
| 2026-04-28 08:07 | 27.26395 | 85.12583 | 13228 ft | 338 kts | 47° |
| 2026-04-28 08:07 | 27.27835 | 85.14666 | 13012 ft | 337 kts | 47° |
| 2026-04-28 08:08 | 27.29328 | 85.16678 | 12775 ft | 331 kts | 38° |
| 2026-04-28 08:08 | 27.31100 | 85.18265 | 12536 ft | 322 kts | 25° |
| 2026-04-28 08:08 | 27.33081 | 85.19355 | 12312 ft | 315 kts | 15° |
| 2026-04-28 08:08 | 27.35082 | 85.20254 | 12083 ft | 310 kts | 15° |
| 2026-04-28 08:09 | 27.37029 | 85.21142 | 11864 ft | 294 kts | 15° |
| 2026-04-28 08:09 | 27.38895 | 85.22001 | 11659 ft | 279 kts | 15° |
| 2026-04-28 08:09 | 27.40621 | 85.22793 | 11496 ft | 265 kts | 20° |
| 2026-04-28 08:09 | 27.42297 | 85.23551 | 11207 ft | 256 kts | 19° |
| 2026-04-28 08:10 | 27.43941 | 85.24284 | 10850 ft | 251 kts | 19° |
| 2026-04-28 08:10 | 27.45550 | 85.25000 | 10506 ft | 246 kts | 19° |
| 2026-04-28 08:10 | 27.47114 | 85.25698 | 10180 ft | 238 kts | 20° |
| 2026-04-28 08:10 | 27.48624 | 85.26376 | 9904 ft | 229 kts | 20° |
| 2026-04-28 08:11 | 27.50060 | 85.27028 | 9557 ft | 216 kts | 20° |
| 2026-04-28 08:11 | 27.51406 | 85.27636 | 9266 ft | 201 kts | 19° |
| 2026-04-28 08:11 | 27.52663 | 85.28200 | 9012 ft | 187 kts | 19° |
| 2026-04-28 08:11 | 27.53835 | 85.28724 | 8799 ft | 177 kts | 19° |
| 2026-04-28 08:12 | 27.54967 | 85.29233 | 8343 ft | 172 kts | 20° |
| 2026-04-28 08:12 | 27.56057 | 85.29726 | 7939 ft | 167 kts | 20° |
| 2026-04-28 08:12 | 27.57132 | 85.30211 | 7546 ft | 166 kts | 20° |
| 2026-04-28 08:12 | 27.58200 | 85.30695 | 7160 ft | 166 kts | 19° |
| 2026-04-28 08:13 | 27.59268 | 85.31176 | 6776 ft | 166 kts | 19° |
| 2026-04-28 08:13 | 27.60335 | 85.31661 | 6414 ft | 166 kts | 19° |
| 2026-04-28 08:13 | 27.61403 | 85.32143 | 6047 ft | 165 kts | 20° |
| 2026-04-28 08:13 | 27.62460 | 85.32620 | 5803 ft | 163 kts | 19° |
| 2026-04-28 08:14 | 27.63512 | 85.33096 | 5562 ft | 162 kts | 20° |
| 2026-04-28 08:14 | 27.64554 | 85.33559 | 5262 ft | 160 kts | 20° |
| 2026-04-28 08:14 | 27.65584 | 85.34033 | 5020 ft | 160 kts | 21° |
| 2026-04-28 08:14 | 27.66611 | 85.34526 | 4766 ft | 161 kts | 21° |
| 2026-04-28 08:15 | 27.67659 | 85.35006 | 4550 ft | 164 kts | 20° |
| 2026-04-28 08:15 | 27.68716 | 85.35493 | 4391 ft | 164 kts | 19° |
| 2026-04-28 08:15 | 27.69631 | 85.35901 | 4396 ft | 119 kts | 22° |
| 2026-04-28 08:15 | 27.70076 | 85.36104 | 4395 ft | 18 kts | 22° |
| 2026-04-28 08:16 | 27.70184 | 85.36105 | 4398 ft | 15 kts | 320° |
| 2026-04-28 08:16 | 27.70185 | 85.36041 | 4398 ft | 7 kts | 232° |
| 2026-04-28 08:16 | 27.70135 | 85.36012 | 4397 ft | 9 kts | 197° |
| 2026-04-28 08:16 | 27.70069 | 85.35982 | 4397 ft | 11 kts | 202° |
| 2026-04-28 08:17 | 27.69989 | 85.35946 | 4397 ft | 13 kts | 202° |
| 2026-04-28 08:17 | 27.69898 | 85.35905 | 4397 ft | 15 kts | 202° |
| 2026-04-28 08:17 | 27.69856 | 85.35877 | 4397 ft | 8 kts | 231° |
| 2026-04-28 08:17 | 27.69874 | 85.35794 | 4398 ft | 6 kts | 291° |
| 2026-04-28 08:18 | 27.69878 | 85.35782 | 4398 ft | 0 kts | 291° |